createdAt,value
2019-02-25T06:37:46.412Z,104.03
2019-02-25T06:40:17.016Z,7.83
2019-02-25T06:42:47.477Z,14.43
2019-02-25T06:45:18.793Z,8.03
2019-02-25T06:47:49.262Z,7.00
2019-02-25T06:50:19.761Z,12.87
2019-02-25T06:52:50.524Z,11.80
2019-02-25T06:55:21.002Z,8.27
2019-02-25T06:57:51.449Z,7.00
2019-02-25T07:00:21.914Z,7.13
2019-02-25T07:02:52.851Z,6.67
2019-02-25T07:05:39.646Z,7.30
2019-02-25T07:08:20.771Z,7.07
2019-02-25T07:11:05.000Z,8.43
2019-02-25T07:14:09.556Z,12.00
2019-02-25T07:16:57.302Z,8.27
2019-02-25T07:19:36.312Z,6.97
2019-02-25T07:22:29.948Z,7.30
2019-02-25T07:25:19.734Z,7.93
2019-02-25T07:28:15.482Z,7.03
2019-02-25T07:31:03.892Z,11.80
2019-02-25T07:33:57.471Z,10.53
2019-02-25T07:36:53.117Z,9.97
2019-02-25T07:39:32.156Z,9.30
2019-02-25T07:42:17.837Z,10.27
2019-02-25T07:45:03.792Z,9.70
2019-02-25T07:47:48.827Z,10.43
2019-02-25T07:50:53.423Z,10.07
2019-02-25T07:53:52.872Z,6.63
2019-02-25T07:56:37.158Z,9.63
2019-02-25T07:59:24.309Z,9.13
2019-02-25T08:02:13.468Z,8.40
2019-02-25T08:04:53.275Z,9.77
2019-02-25T08:07:38.996Z,10.03
2019-02-25T08:10:25.207Z,7.73
2019-02-25T08:13:23.924Z,9.90
2019-02-25T08:16:25.745Z,11.20
2019-02-25T08:19:18.036Z,12.20
2019-02-25T08:22:07.029Z,10.60
2019-02-25T08:24:48.194Z,14.53
2019-02-25T08:27:40.562Z,11.37
2019-02-25T08:30:21.553Z,12.73
2019-02-25T08:33:17.077Z,15.07
2019-02-25T08:36:26.924Z,8.00
2019-02-25T08:39:12.293Z,13.03
2019-02-25T08:41:53.902Z,12.90
2019-02-25T08:44:42.248Z,14.47
2019-02-25T08:47:31.816Z,12.50
2019-02-25T08:50:04.893Z,12.10
2019-02-25T08:52:35.349Z,11.97
2019-02-25T08:55:07.249Z,10.97
2019-02-25T08:57:37.709Z,12.07
2019-02-25T09:00:11.764Z,11.57
2019-02-25T09:02:42.220Z,12.60
2019-02-25T09:05:13.661Z,8.67
2019-02-25T09:07:44.136Z,9.37
2019-02-25T09:10:14.951Z,9.48
2019-02-25T09:12:45.400Z,10.27
2019-02-25T09:15:15.864Z,10.57
2019-02-25T09:17:45.436Z,8.10
2019-02-25T09:20:16.397Z,11.13
2019-02-25T09:22:47.267Z,8.73
2019-02-25T09:25:17.726Z,10.00
2019-02-25T09:27:48.246Z,10.70
2019-02-25T09:30:18.753Z,9.70
2019-02-25T09:32:49.321Z,10.47
2019-02-25T09:35:19.804Z,9.53
2019-02-25T09:37:51.409Z,8.87
2019-02-25T09:40:21.840Z,10.43
2019-02-25T09:42:52.449Z,9.50
2019-02-25T09:45:22.918Z,7.47
2019-02-25T09:47:53.433Z,10.93
2019-02-25T09:50:23.890Z,10.43
2019-02-25T09:52:54.377Z,6.90
2019-02-25T09:55:24.829Z,10.00
2019-02-25T09:57:55.642Z,9.97
2019-02-25T10:00:26.570Z,9.87
2019-02-25T10:02:57.044Z,6.50
2019-02-25T10:05:27.517Z,11.90
2019-02-25T10:07:58.026Z,11.87
2019-02-25T10:10:29.040Z,8.93
2019-02-25T10:12:59.954Z,8.33
2019-02-25T10:15:30.421Z,8.07
2019-02-25T10:18:00.884Z,8.07
2019-02-25T10:20:31.376Z,7.53
2019-02-25T10:23:01.850Z,9.07
2019-02-25T10:25:32.639Z,8.37
2019-02-25T10:28:03.496Z,9.10
2019-02-25T10:30:34.056Z,9.37
2019-02-25T10:33:04.492Z,8.50
2019-02-25T10:35:35.045Z,9.33
2019-02-25T10:38:06.334Z,9.60
2019-02-25T10:40:37.009Z,7.73
2019-02-25T10:43:07.460Z,10.77
2019-02-25T10:45:39.002Z,9.23
2019-02-25T10:48:11.061Z,8.10
2019-02-25T10:50:41.564Z,8.90
2019-02-25T10:53:13.639Z,10.10
2019-02-25T10:55:50.935Z,7.60
2019-02-25T10:58:21.973Z,10.17
2019-02-25T11:00:52.464Z,9.30
2019-02-25T11:03:23.304Z,9.57
2019-02-25T11:05:54.458Z,10.10
2019-02-25T11:08:26.177Z,7.17
2019-02-25T11:11:00.710Z,11.57
2019-02-25T11:13:31.962Z,9.50
2019-02-25T11:16:03.926Z,7.70
2019-02-25T11:18:34.444Z,10.73
2019-02-25T11:21:06.168Z,13.57
2019-02-25T11:23:37.492Z,8.27
2019-02-25T11:26:09.323Z,7.43
2019-02-25T11:28:41.228Z,6.73
2019-02-25T11:31:12.643Z,10.50
2019-02-25T11:33:43.543Z,23.50
2019-02-25T11:36:15.407Z,18.37
2019-02-25T11:38:47.459Z,8.80
2019-02-25T11:41:17.905Z,10.93
2019-02-25T11:43:50.486Z,9.93
2019-02-25T11:46:20.879Z,10.82
2019-02-25T11:48:51.483Z,10.43
2019-02-25T11:51:22.064Z,7.80
2019-02-25T11:53:52.522Z,9.90
2019-02-25T11:56:23.001Z,16.30
2019-02-25T11:58:53.573Z,11.33
2019-02-25T12:01:24.180Z,13.50
2019-02-25T12:03:54.613Z,8.60
2019-02-25T12:06:25.391Z,11.73
2019-02-25T12:08:55.956Z,11.23
2019-02-25T12:11:26.440Z,9.87
2019-02-25T12:13:56.951Z,7.60
2019-02-25T12:16:27.500Z,6.93
2019-02-25T12:18:57.970Z,9.23
2019-02-25T12:21:28.696Z,16.17
2019-02-25T12:23:59.432Z,6.90
2019-02-25T12:26:29.948Z,7.60
2019-02-25T12:29:00.404Z,8.40
2019-02-25T12:31:30.857Z,7.03
2019-02-25T12:34:01.506Z,8.10
2019-02-25T12:36:31.949Z,9.53
2019-02-25T12:39:02.410Z,6.33
2019-02-25T12:41:34.814Z,9.50
2019-02-25T12:44:05.393Z,10.60
2019-02-25T12:46:35.840Z,8.37
2019-02-25T12:49:06.333Z,10.47
2019-02-25T12:51:36.865Z,6.33
2019-02-25T12:54:07.509Z,7.57
2019-02-25T12:56:38.342Z,7.23
2019-02-25T12:59:08.826Z,6.60
2019-02-25T13:01:39.971Z,7.83
2019-02-25T13:04:10.510Z,7.03
2019-02-25T13:06:41.092Z,6.60
2019-02-25T13:09:15.451Z,6.17
2019-02-25T13:11:45.920Z,10.17
2019-02-25T13:14:16.788Z,6.80
2019-02-25T13:16:47.254Z,7.63
2019-02-25T13:19:17.700Z,5.53
2019-02-25T13:21:48.259Z,6.67
2019-02-25T13:24:18.730Z,6.27
2019-02-25T13:26:49.254Z,8.70
2019-02-25T13:29:20.078Z,7.85
2019-02-25T13:31:50.631Z,11.50
2019-02-25T13:34:21.216Z,7.15
2019-02-25T13:36:51.837Z,8.50
2019-02-25T13:39:22.631Z,6.85
2019-02-25T13:41:53.201Z,7.17
2019-02-25T13:44:23.818Z,5.85
2019-02-25T13:46:54.378Z,7.37
2019-02-25T13:49:24.969Z,8.10
2019-02-25T13:51:56.614Z,11.25
2019-02-25T13:54:29.342Z,5.97
2019-02-25T13:56:59.719Z,7.97
2019-02-25T13:59:30.214Z,9.33
2019-02-25T14:02:01.135Z,7.10
2019-02-25T14:04:32.753Z,5.10
2019-02-25T14:07:03.662Z,5.55
2019-02-25T14:11:16.323Z,8.53
2019-02-25T14:13:46.912Z,6.27
2019-02-25T14:16:20.389Z,7.93
2019-02-25T14:19:52.317Z,7.67
2019-02-25T14:22:22.852Z,8.48
2019-02-25T14:24:53.629Z,7.20
2019-02-25T14:27:24.089Z,6.57
2019-02-25T14:29:54.541Z,9.50
2019-02-25T14:52:55.371Z,6.73
2019-02-25T14:55:26.028Z,7.10
2019-02-25T14:57:59.883Z,9.57
2019-02-25T15:00:38.998Z,7.63
2019-02-25T15:03:09.713Z,7.30
2019-02-25T15:05:40.528Z,6.80
2019-02-25T15:08:11.118Z,5.23
2019-02-25T15:10:42.951Z,10.43
2019-02-25T15:13:13.702Z,6.47
2019-02-25T15:15:45.790Z,8.13
2019-02-25T15:18:16.867Z,6.70
2019-02-25T15:20:48.954Z,6.43
2019-02-25T15:23:23.098Z,9.90
2019-02-25T15:25:51.826Z,6.80
2019-02-25T15:28:22.920Z,8.37
2019-02-25T15:30:53.755Z,9.60
2019-02-25T15:33:24.561Z,7.13
2019-02-25T15:35:55.052Z,6.60
2019-02-25T15:38:28.699Z,6.83
2019-02-25T15:40:58.320Z,6.33
2019-02-25T15:43:30.920Z,9.23
2019-02-25T15:46:01.590Z,6.67
2019-02-25T15:48:32.783Z,9.13
2019-02-25T15:51:04.633Z,9.70
2019-02-25T15:53:35.136Z,8.07
2019-02-25T15:56:08.078Z,10.67
2019-02-25T15:58:39.346Z,14.60
2019-02-25T16:01:11.366Z,7.97
2019-02-25T16:03:43.075Z,16.17
2019-02-25T16:06:13.724Z,27.67
2019-02-25T16:08:45.265Z,13.67
2019-02-25T16:11:18.789Z,18.40
2019-02-25T16:13:49.442Z,5.63
2019-02-25T16:16:20.495Z,10.57
2019-02-25T16:18:53.467Z,9.67
2019-02-25T16:21:24.495Z,7.33
2019-02-25T16:23:59.331Z,9.13
2019-02-25T16:26:28.005Z,8.17
2019-02-25T16:29:06.433Z,6.17
2019-02-25T16:31:37.609Z,6.43
2019-02-25T16:34:09.691Z,9.17
2019-02-25T16:36:40.854Z,8.07
2019-02-25T16:39:11.347Z,7.83
2019-02-25T16:41:43.433Z,9.40
2019-02-25T16:44:14.464Z,7.93
2019-02-25T16:46:46.707Z,6.20
2019-02-25T16:49:17.300Z,8.97
2019-02-25T16:51:47.863Z,11.17
2019-02-25T16:54:20.638Z,8.63
2019-02-25T16:56:50.637Z,12.30
2019-02-25T16:59:23.015Z,7.57
2019-02-25T17:01:55.787Z,8.10
2019-02-25T17:04:27.993Z,8.23
2019-02-25T17:06:59.999Z,8.83
2019-02-25T17:09:34.025Z,11.37
2019-02-25T17:12:06.672Z,7.63
2019-02-25T17:14:40.073Z,12.13
2019-02-25T17:17:09.631Z,12.43
2019-02-25T17:19:40.087Z,6.93
2019-02-25T17:22:10.808Z,9.77
2019-02-25T17:24:41.296Z,7.20
2019-02-25T17:27:12.419Z,13.97
2019-02-25T17:29:44.837Z,11.37
2019-02-25T17:32:18.901Z,6.73
2019-02-25T17:34:49.349Z,11.07
2019-02-25T17:37:49.462Z,8.80
2019-02-25T17:40:20.019Z,8.93
2019-02-25T17:42:53.460Z,7.93
2019-02-25T17:45:25.091Z,8.33
2019-02-25T17:47:58.433Z,8.10
2019-02-25T17:50:34.243Z,12.43
2019-02-25T17:53:05.014Z,15.37
2019-02-25T17:55:36.333Z,8.60
2019-02-25T17:58:07.638Z,9.80
2019-02-25T18:00:42.322Z,12.33
2019-02-25T18:03:12.890Z,14.13
2019-02-25T18:05:44.418Z,11.13
2019-02-25T18:08:15.489Z,15.10
2019-02-25T18:10:47.475Z,11.90
2019-02-25T18:13:21.970Z,12.00
2019-02-25T18:15:56.207Z,12.73
2019-02-25T18:18:26.780Z,14.50
2019-02-25T18:20:57.281Z,13.70
2019-02-25T18:23:27.956Z,14.80
2019-02-25T18:25:58.862Z,16.47
2019-02-25T18:28:29.436Z,14.93
2019-02-25T18:31:01.669Z,21.87
2019-02-25T18:33:33.433Z,17.37
2019-02-25T18:36:05.081Z,16.97
2019-02-25T18:38:40.500Z,19.17
2019-02-25T18:41:10.953Z,20.10
2019-02-25T18:43:42.986Z,21.90
2019-02-25T18:46:13.649Z,23.37
2019-02-25T18:48:44.639Z,17.93
2019-02-25T18:51:16.092Z,19.97
2019-02-25T18:53:46.768Z,21.93
2019-02-25T18:56:18.584Z,16.50
2019-02-25T18:58:50.461Z,21.97
2019-02-25T19:01:21.395Z,22.83
2019-02-25T19:03:52.684Z,18.93
2019-02-25T19:06:25.629Z,18.75
2019-02-25T19:08:58.151Z,17.87
2019-02-25T19:11:28.411Z,21.10
2019-02-25T19:14:01.766Z,19.63
2019-02-25T19:16:31.245Z,20.70
2019-02-25T19:19:03.967Z,19.03
2019-02-25T19:21:34.172Z,24.43
2019-02-25T19:24:14.220Z,17.13
2019-02-25T19:30:43.307Z,22.77
2019-02-25T19:33:13.932Z,23.67
2019-02-25T19:35:44.526Z,20.50
2019-02-25T19:38:17.603Z,22.13
2019-02-25T19:40:51.305Z,24.83
2019-02-25T19:43:20.275Z,25.80
2019-02-25T19:45:50.790Z,22.23
2019-02-25T19:48:25.791Z,24.63
2019-02-25T19:50:54.609Z,23.83
2019-02-25T19:53:26.944Z,19.97
2019-02-25T19:55:57.517Z,23.23
2019-02-25T19:58:31.665Z,20.00
2019-02-25T20:01:01.174Z,22.13
2019-02-25T20:03:33.054Z,21.50
2019-02-25T20:06:04.869Z,21.10
2019-02-25T20:08:35.382Z,23.83
2019-02-25T20:11:09.230Z,19.50
2019-02-25T20:13:40.537Z,20.43
2019-02-25T20:16:15.821Z,19.97
2019-02-25T20:18:43.248Z,23.13
2019-02-25T20:21:14.136Z,19.87
2019-02-25T20:23:45.380Z,21.23
2019-02-25T20:26:17.709Z,21.30
2019-02-25T20:28:50.566Z,22.20
2019-02-25T20:31:21.362Z,24.80
2019-02-25T20:33:53.083Z,20.77
2019-02-25T20:36:25.921Z,21.63
2019-02-25T20:38:56.832Z,24.37
2019-02-25T20:41:28.837Z,21.73
2019-02-25T20:44:01.050Z,20.80
2019-02-25T20:46:34.835Z,23.83
2019-02-25T20:49:05.239Z,21.53
2019-02-25T20:51:36.176Z,21.87
2019-02-25T20:54:08.843Z,24.60
2019-02-25T20:56:39.433Z,22.30
2019-02-25T20:59:10.047Z,20.20
2019-02-25T21:01:44.064Z,24.50
2019-02-25T21:04:15.688Z,25.70
2019-02-25T21:06:46.646Z,22.80
2019-02-25T21:09:17.274Z,21.97
2019-02-25T21:11:47.876Z,19.97
2019-02-25T21:14:18.409Z,21.40
2019-02-25T21:16:48.926Z,20.67
2019-02-25T21:19:20.102Z,18.60
2019-02-25T21:21:55.024Z,19.17
2019-02-25T21:24:23.177Z,22.97
2019-02-25T21:26:57.096Z,19.87
2019-02-25T21:29:28.951Z,24.03
2019-02-25T21:31:59.653Z,19.43
2019-02-25T21:34:31.219Z,22.30
2019-02-25T21:37:03.055Z,21.80
2019-02-25T21:39:36.520Z,20.03
2019-02-25T21:42:10.653Z,20.00
2019-02-25T21:44:39.160Z,20.37
2019-02-25T21:47:09.623Z,23.53
2019-02-25T21:49:40.584Z,26.27
2019-02-25T21:52:13.614Z,18.90
2019-02-25T21:54:44.944Z,20.30
2019-02-25T21:57:15.817Z,19.87
2019-02-25T21:59:46.666Z,18.60
2019-02-25T22:02:17.153Z,16.40
2019-02-25T22:04:49.658Z,17.67
2019-02-25T22:07:24.396Z,19.63
2019-02-25T22:09:52.611Z,18.27
2019-02-25T22:12:23.167Z,19.17
2019-02-25T22:14:53.982Z,18.77
2019-02-25T22:17:25.295Z,18.57
2019-02-25T22:19:57.145Z,22.07
2019-02-25T22:22:29.520Z,22.17
2019-02-25T22:25:05.917Z,19.90
2019-02-25T22:27:35.316Z,21.53
2019-02-25T22:30:09.118Z,22.40
2019-02-25T22:32:40.784Z,21.03
2019-02-25T22:35:12.825Z,19.23
2019-02-25T22:37:49.322Z,20.83
2019-02-25T22:40:19.259Z,18.80
2019-02-25T22:42:52.151Z,20.07
2019-02-25T22:45:22.549Z,23.50
2019-02-25T22:47:53.056Z,19.43
2019-02-25T22:50:23.560Z,19.67
2019-02-25T22:53:00.592Z,21.50
2019-02-25T22:55:47.286Z,19.30
2019-02-25T22:58:38.348Z,19.10
2019-02-25T23:01:20.929Z,23.90
2019-02-25T23:03:54.525Z,21.03
2019-02-25T23:06:25.359Z,20.30
2019-02-25T23:08:56.432Z,21.40
2019-02-25T23:11:27.281Z,18.90
2019-02-25T23:13:57.736Z,20.03
2019-02-25T23:16:28.258Z,19.40
2019-02-25T23:18:58.948Z,21.47
2019-02-25T23:21:31.347Z,21.73
2019-02-25T23:24:02.991Z,17.77
2019-02-25T23:26:35.085Z,19.33
2019-02-25T23:29:05.613Z,17.80
2019-02-25T23:31:36.061Z,18.90
2019-02-25T23:34:10.278Z,17.33
2019-02-25T23:36:43.016Z,21.17
2019-02-25T23:39:12.385Z,21.20
2019-02-25T23:41:43.996Z,17.27
2019-02-25T23:44:16.995Z,21.70
2019-02-25T23:46:47.173Z,18.10
2019-02-25T23:49:26.837Z,19.07
2019-02-25T23:51:49.750Z,17.87
2019-02-25T23:54:23.278Z,17.17
2019-02-25T23:56:55.169Z,15.93
2019-02-25T23:59:26.652Z,15.93
